Time;durP1;ratioP1;P1;durP2;ratioP2;P2;SDS_P1;SDS_P2;PMS_P1;PMS_P2;Temp;Humidity;BMP_temperature;BMP_pressure;BME280_temperature;BME280_humidity;BME280_pressure;Samples;Min_cycle;Max_cycle;Signal;HPM_P1;HPM_P2
2022/04/21 00:00:48;;;;;;;1.20;1.00;;;7.30;98.00;;;;;;6275155;22;20419;-71
2022/04/21 00:03:15;;;;;;;4.97;1.47;;;7.30;98.00;;;;;;6275248;22;20416;-71
2022/04/21 00:05:42;;;;;;;2.00;1.40;;;7.20;98.00;;;;;;6275520;22;20415;-70
2022/04/21 00:08:09;;;;;;;1.47;1.23;;;7.10;98.00;;;;;;6275059;22;20448;-70
2022/04/21 00:10:37;;;;;;;1.30;1.23;;;7.10;98.00;;;;;;6275237;22;20435;-71
2022/04/21 00:13:06;;;;;;;1.40;1.40;;;7.10;98.00;;;;;;6275349;22;20423;-73
2022/04/21 00:15:35;;;;;;;1.30;1.20;;;7.00;98.00;;;;;;6275585;22;20724;-71
2022/04/21 00:18:02;;;;;;;1.27;1.27;;;7.20;98.00;;;;;;6275726;22;20411;-71
2022/04/21 00:20:29;;;;;;;1.30;1.10;;;7.10;98.00;;;;;;6275938;22;20394;-72
2022/04/21 00:25:45;;;;;;;1.60;1.40;;;6.90;98.00;;;;;;6252994;22;20392;-71
2022/04/21 00:28:12;;;;;;;1.20;1.10;;;6.90;98.00;;;;;;6248344;22;20411;-71
2022/04/21 00:30:40;;;;;;;2.17;1.20;;;6.90;98.00;;;;;;6275008;22;20517;-71
2022/04/21 00:33:07;;;;;;;1.90;1.57;;;6.80;98.00;;;;;;6275245;22;20465;-70
2022/04/21 00:35:34;;;;;;;1.20;1.10;;;7.00;98.00;;;;;;6274800;22;20462;-71
2022/04/21 00:38:01;;;;;;;1.77;1.27;;;7.10;98.00;;;;;;6275243;22;20402;-71
2022/04/21 00:40:30;;;;;;;1.50;1.40;;;7.10;98.00;;;;;;6275284;22;20425;-71
2022/04/21 00:42:58;;;;;;;1.30;1.10;;;7.10;98.00;;;;;;6275212;22;20423;-71
2022/04/21 00:45:27;;;;;;;2.33;1.43;;;7.00;98.00;;;;;;6274849;22;20427;-71
2022/04/21 00:47:58;;;;;;;1.30;1.17;;;7.00;98.00;;;;;;6275223;22;20404;-70
2022/04/21 00:50:28;;;;;;;1.30;1.20;;;7.10;98.00;;;;;;6275199;22;20478;-71
2022/04/21 00:52:56;;;;;;;1.30;1.20;;;7.10;98.00;;;;;;6275273;22;20723;-71
2022/04/21 00:55:24;;;;;;;1.20;1.07;;;7.00;98.00;;;;;;6275258;22;20473;-70
2022/04/21 00:57:53;;;;;;;2.23;1.97;;;7.00;98.00;;;;;;6274877;22;20420;-71
2022/04/21 01:00:21;;;;;;;1.20;1.10;;;7.00;98.00;;;;;;6274917;22;20412;-72
2022/04/21 01:02:49;;;;;;;1.77;1.47;;;6.90;98.00;;;;;;6275087;22;20423;-71
2022/04/21 01:05:18;;;;;;;2.90;1.73;;;7.00;98.00;;;;;;6248889;22;20425;-69
2022/04/21 01:07:46;;;;;;;1.50;1.40;;;7.00;98.00;;;;;;6275172;22;20450;-71
2022/04/21 01:10:13;;;;;;;1.80;1.60;;;6.90;98.00;;;;;;6274909;22;20443;-70
2022/04/21 01:12:41;;;;;;;1.80;1.50;;;7.00;98.00;;;;;;6275532;22;20424;-71
2022/04/21 01:15:09;;;;;;;1.30;1.27;;;7.00;98.00;;;;;;6248567;22;20404;-72
2022/04/21 01:17:38;;;;;;;1.20;1.00;;;7.00;98.00;;;;;;6274951;22;20460;-72
2022/04/21 01:20:06;;;;;;;1.40;1.27;;;6.90;98.00;;;;;;6275672;22;20424;-71
2022/04/21 01:22:35;;;;;;;1.30;1.20;;;6.90;98.00;;;;;;6250012;22;20410;-70
2022/04/21 01:25:03;;;;;;;1.73;1.30;;;6.90;98.00;;;;;;6276680;22;20489;-69
2022/04/21 01:27:34;;;;;;;1.57;1.47;;;6.80;98.00;;;;;;6276980;22;20423;-70
2022/04/21 01:30:03;;;;;;;1.20;1.00;;;6.90;98.00;;;;;;6250277;22;20431;-71
2022/04/21 01:32:35;;;;;;;1.87;1.40;;;7.00;98.00;;;;;;6276685;22;20478;-70
2022/04/21 01:35:04;;;;;;;2.27;1.33;;;6.90;98.00;;;;;;6276801;22;20447;-71
2022/04/21 01:43:02;;;;;;;1.60;1.53;;;6.80;98.00;;;;;;6287074;22;20395;-70
2022/04/21 01:45:29;;;;;;;1.30;1.30;;;6.70;98.00;;;;;;6276395;22;20477;-69
2022/04/21 01:47:57;;;;;;;2.30;1.90;;;6.70;98.00;;;;;;6276680;22;20932;-73
2022/04/21 01:50:25;;;;;;;1.57;1.40;;;6.80;98.00;;;;;;6249880;22;20443;-73
2022/04/21 01:52:52;;;;;;;1.77;1.67;;;6.90;98.00;;;;;;6276363;22;20990;-69
2022/04/21 01:55:20;;;;;;;1.40;1.20;;;6.90;98.00;;;;;;6276806;22;20419;-73
2022/04/21 01:57:47;;;;;;;1.40;1.30;;;6.80;98.00;;;;;;6276730;22;20441;-70
2022/04/21 02:00:15;;;;;;;1.20;1.10;;;6.70;98.00;;;;;;6276676;22;20473;-71
2022/04/21 02:02:43;;;;;;;1.50;1.40;;;6.60;98.00;;;;;;6275917;22;20476;-70
2022/04/21 02:05:10;;;;;;;1.60;1.30;;;6.50;98.00;;;;;;6276206;22;20406;-71
2022/04/21 02:07:42;;;;;;;3.97;2.23;;;6.60;98.00;;;;;;6276008;22;20445;-71
2022/04/21 02:10:09;;;;;;;1.40;1.40;;;6.60;98.00;;;;;;6250185;22;20808;-70
2022/04/21 02:12:38;;;;;;;1.20;1.10;;;6.60;98.00;;;;;;6276534;22;20418;-72
2022/04/21 02:15:06;;;;;;;1.43;1.27;;;6.70;98.00;;;;;;6275962;22;20475;-73
2022/04/21 02:17:33;;;;;;;7.07;1.60;;;6.60;98.00;;;;;;6276548;22;20414;-70
2022/04/21 02:20:01;;;;;;;2.33;1.60;;;6.50;98.00;;;;;;6276250;22;20453;-72
2022/04/21 02:22:29;;;;;;;2.03;1.90;;;6.50;98.00;;;;;;6275422;22;20727;-72
2022/04/21 02:24:56;;;;;;;1.77;1.30;;;6.40;98.00;;;;;;6276253;22;20713;-70
2022/04/21 02:27:23;;;;;;;1.83;1.37;;;6.50;98.00;;;;;;6276565;22;20462;-70
2022/04/21 02:29:52;;;;;;;1.30;1.30;;;6.40;98.00;;;;;;6275891;22;20905;-71
2022/04/21 02:32:19;;;;;;;4.40;1.70;;;6.50;98.00;;;;;;6276010;22;20414;-70
2022/04/21 02:34:47;;;;;;;1.53;1.50;;;6.60;98.00;;;;;;6276040;22;20431;-70
2022/04/21 02:37:14;;;;;;;1.73;1.60;;;6.60;98.00;;;;;;6276501;22;20434;-71
2022/04/21 02:39:41;;;;;;;2.37;1.50;;;6.50;98.00;;;;;;6276271;22;20418;-71
2022/04/21 02:42:09;;;;;;;3.23;1.70;;;6.50;98.00;;;;;;6276298;22;20484;-71
2022/04/21 02:44:36;;;;;;;1.57;1.50;;;6.50;98.00;;;;;;6276208;22;20455;-71
2022/04/21 02:47:08;;;;;;;12.43;2.03;;;6.30;98.00;;;;;;6275693;22;20417;-70
2022/04/21 02:49:36;;;;;;;1.83;1.30;;;6.40;98.00;;;;;;6276277;22;20705;-72
2022/04/21 02:52:05;;;;;;;1.27;1.23;;;6.40;98.00;;;;;;6276304;22;20434;-72
2022/04/21 02:57:23;;;;;;;1.40;1.00;;;6.40;98.00;;;;;;6276422;22;20401;-73
2022/04/21 02:59:51;;;;;;;1.30;1.30;;;6.40;98.00;;;;;;6276833;22;20399;-70
2022/04/21 03:02:20;;;;;;;1.90;1.67;;;6.40;98.00;;;;;;6275810;22;20907;-71
2022/04/21 03:04:49;;;;;;;1.80;1.57;;;6.20;98.00;;;;;;6275810;22;20885;-71
2022/04/21 03:07:17;;;;;;;1.97;1.37;;;6.00;98.00;;;;;;6275632;22;20427;-73
2022/04/21 03:09:45;;;;;;;1.20;1.00;;;5.90;98.00;;;;;;6275597;22;20916;-73
2022/04/21 03:12:12;;;;;;;2.03;1.20;;;5.90;98.00;;;;;;6275493;22;20450;-72
2022/04/21 03:14:40;;;;;;;1.63;1.57;;;5.80;98.00;;;;;;6275647;22;20504;-71
2022/04/21 03:17:08;;;;;;;1.80;1.60;;;5.90;98.00;;;;;;6276848;22;20761;-72
2022/04/21 03:19:39;;;;;;;1.40;1.37;;;5.80;98.00;;;;;;6275801;22;20483;-71
2022/04/21 03:24:54;;;;;;;2.07;1.70;;;5.80;98.00;;;;;;6275696;22;20399;-70
2022/04/21 03:27:21;;;;;;;1.20;1.00;;;5.80;98.00;;;;;;6248637;22;20413;-71
2022/04/21 03:29:48;;;;;;;2.50;1.73;;;5.80;98.00;;;;;;6276005;22;20398;-70
2022/04/21 03:32:15;;;;;;;1.73;1.47;;;5.70;98.00;;;;;;6275368;22;20458;-71
2022/04/21 03:34:45;;;;;;;1.40;1.23;;;5.70;98.00;;;;;;6275516;22;21036;-71
2022/04/21 03:37:13;;;;;;;1.33;1.20;;;5.70;98.00;;;;;;6275842;22;20506;-71
2022/04/21 03:39:41;;;;;;;2.90;2.40;;;5.70;98.00;;;;;;6275793;22;20720;-72
2022/04/21 03:42:17;;;;;;;2.23;1.40;;;5.80;98.00;;;;;;6275327;22;20431;-71
2022/04/21 03:44:44;;;;;;;1.30;1.10;;;5.70;98.00;;;;;;6275099;22;20421;-71
2022/04/21 03:47:15;;;;;;;2.07;1.50;;;5.70;98.00;;;;;;6275534;22;20882;-71
2022/04/21 03:49:44;;;;;;;5.93;1.63;;;5.40;98.00;;;;;;6276182;22;20454;-72
2022/04/21 03:52:11;;;;;;;1.50;1.37;;;5.40;98.00;;;;;;6275474;22;20524;-70
2022/04/21 03:54:39;;;;;;;1.80;1.53;;;5.50;98.00;;;;;;6272502;22;20409;-72
2022/04/21 03:57:08;;;;;;;1.90;1.63;;;5.50;98.00;;;;;;6275285;22;20403;-70
2022/04/21 03:59:36;;;;;;;2.50;1.60;;;5.60;98.00;;;;;;6275170;22;20412;-70
2022/04/21 04:02:04;;;;;;;1.60;1.47;;;5.50;98.00;;;;;;6275293;22;20428;-71
2022/04/21 04:04:31;;;;;;;1.30;1.30;;;5.50;98.00;;;;;;6248355;22;20428;-70
2022/04/21 04:12:32;;;;;;;1.20;1.20;;;5.10;98.00;;;;;;6285703;22;20506;-71
2022/04/21 04:15:00;;;;;;;1.20;1.20;;;5.10;98.00;;;;;;6275382;22;20410;-71
2022/04/21 04:17:27;;;;;;;1.20;1.10;;;5.10;98.00;;;;;;6275162;22;20414;-72
2022/04/21 04:19:54;;;;;;;1.40;1.30;;;5.10;98.00;;;;;;6275189;22;20415;-72
2022/04/21 04:22:22;;;;;;;1.33;1.20;;;5.00;98.00;;;;;;6275398;22;20453;-71
2022/04/21 04:24:53;;;;;;;1.70;1.50;;;5.00;98.00;;;;;;6275574;22;20419;-71
2022/04/21 04:27:20;;;;;;;1.77;1.70;;;4.90;98.00;;;;;;6249673;22;20421;-71
2022/04/21 04:29:48;;;;;;;1.47;1.20;;;4.90;98.00;;;;;;6275202;22;20409;-71
2022/04/21 04:32:15;;;;;;;1.30;1.30;;;4.80;98.00;;;;;;6274956;22;20464;-70
2022/04/21 04:34:42;;;;;;;2.90;1.40;;;4.80;98.00;;;;;;6275451;22;20707;-69
2022/04/21 04:37:09;;;;;;;1.27;1.10;;;4.90;98.00;;;;;;6275002;22;20405;-71
2022/04/21 04:39:38;;;;;;;1.27;1.17;;;5.00;98.00;;;;;;6274762;22;21176;-72
2022/04/21 04:42:17;;;;;;;2.13;1.30;;;4.90;98.00;;;;;;6275446;22;20397;-71
2022/04/21 04:44:45;;;;;;;1.77;1.73;;;4.90;98.00;;;;;;6274719;22;20431;-69
2022/04/21 04:47:11;;;;;;;1.40;1.20;;;4.90;98.00;;;;;;6275102;22;20400;-71
2022/04/21 04:49:38;;;;;;;1.77;1.77;;;4.80;98.00;;;;;;6275134;22;20457;-72
2022/04/21 04:52:05;;;;;;;1.30;1.10;;;4.90;98.00;;;;;;6275040;22;20491;-70
2022/04/21 04:54:32;;;;;;;2.13;1.10;;;4.90;98.00;;;;;;6275099;22;20871;-71
2022/04/21 04:57:01;;;;;;;1.20;1.20;;;4.90;98.00;;;;;;6277188;22;20451;-71
2022/04/21 04:59:29;;;;;;;1.70;1.30;;;5.00;98.00;;;;;;6277101;22;20400;-71
2022/04/21 05:01:56;;;;;;;1.27;1.17;;;5.00;98.00;;;;;;6276827;22;20398;-72
2022/04/21 05:04:26;;;;;;;2.20;2.03;;;5.10;98.00;;;;;;6277318;22;20419;-71
2022/04/21 05:06:54;;;;;;;2.13;1.77;;;5.20;98.00;;;;;;6276799;22;20411;-71
2022/04/21 05:09:23;;;;;;;1.87;1.57;;;5.40;98.00;;;;;;6277049;22;20872;-70
2022/04/21 05:11:52;;;;;;;2.57;1.60;;;5.50;98.00;;;;;;6277043;22;20434;-71
2022/04/21 05:14:21;;;;;;;1.13;0.90;;;5.50;98.00;;;;;;6250489;22;20412;-70
2022/04/21 05:16:49;;;;;;;2.53;1.30;;;5.60;98.00;;;;;;6277139;22;20419;-70
2022/04/21 05:19:19;;;;;;;1.30;1.20;;;5.70;98.00;;;;;;6276885;22;20452;-70
2022/04/21 05:21:47;;;;;;;1.40;1.30;;;5.90;98.00;;;;;;6276623;22;20419;-71
2022/04/21 05:24:15;;;;;;;2.27;2.13;;;6.00;98.00;;;;;;6276801;22;20445;-70
2022/04/21 05:26:45;;;;;;;1.67;1.63;;;6.00;98.00;;;;;;6277143;22;20416;-70
2022/04/21 05:32:18;;;;;;;1.30;1.17;;;6.20;98.00;;;;;;6163061;23;20432;-70
2022/04/21 05:34:46;;;;;;;2.33;1.67;;;6.20;98.00;;;;;;6153459;23;20428;-70
2022/04/21 05:37:14;;;;;;;1.57;1.17;;;6.10;98.00;;;;;;6212560;22;20497;-72
2022/04/21 05:39:54;;;;;;;1.20;1.10;;;5.90;98.00;;;;;;6276959;22;20727;-71
2022/04/21 05:42:23;;;;;;;1.20;1.00;;;6.00;98.00;;;;;;6276612;22;20447;-70
2022/04/21 05:44:53;;;;;;;1.80;1.53;;;6.00;98.00;;;;;;6276544;22;20828;-73
2022/04/21 05:47:23;;;;;;;2.17;1.50;;;5.90;98.00;;;;;;6275368;22;20420;-70
2022/04/21 05:49:50;;;;;;;2.07;1.83;;;5.80;98.00;;;;;;6276821;22;20466;-70
2022/04/21 05:52:22;;;;;;;2.57;1.90;;;5.80;98.00;;;;;;6276509;22;20466;-71
2022/04/21 05:54:50;;;;;;;2.43;1.73;;;5.90;98.00;;;;;;6276862;22;20404;-71
2022/04/21 05:57:17;;;;;;;1.40;1.40;;;5.90;98.00;;;;;;6276210;22;21184;-70
2022/04/21 05:59:44;;;;;;;2.03;1.93;;;6.00;98.00;;;;;;6276794;22;20461;-72
2022/04/21 06:02:11;;;;;;;1.90;1.50;;;6.10;98.00;;;;;;6276755;22;20450;-72
2022/04/21 06:04:40;;;;;;;1.70;1.60;;;6.20;98.00;;;;;;6276866;22;20467;-71
2022/04/21 06:07:07;;;;;;;1.50;1.40;;;6.30;98.00;;;;;;6276939;22;20427;-71
2022/04/21 06:09:34;;;;;;;1.40;1.40;;;6.50;98.00;;;;;;6277146;22;20410;-72
2022/04/21 06:12:03;;;;;;;3.77;1.90;;;6.70;98.00;;;;;;6249835;22;20454;-71
2022/04/21 06:14:30;;;;;;;1.30;1.20;;;6.90;98.00;;;;;;6250671;22;20397;-70
2022/04/21 06:16:58;;;;;;;6.67;2.80;;;7.10;98.00;;;;;;6249774;22;20942;-72
2022/04/21 06:19:25;;;;;;;1.30;1.20;;;7.30;98.00;;;;;;6276804;22;20430;-71
2022/04/21 06:21:53;;;;;;;1.37;1.30;;;7.50;98.00;;;;;;6276458;22;20450;-71
2022/04/21 06:24:20;;;;;;;2.33;1.57;;;7.70;98.00;;;;;;6276611;22;20446;-71
2022/04/21 06:26:47;;;;;;;1.43;1.23;;;7.90;98.00;;;;;;6276540;22;20422;-71
2022/04/21 06:29:14;;;;;;;1.80;1.70;;;8.10;98.00;;;;;;6276176;22;20898;-69
2022/04/21 06:31:41;;;;;;;1.83;1.73;;;8.20;98.00;;;;;;6249238;22;20443;-70
2022/04/21 06:34:08;;;;;;;2.17;1.97;;;8.30;98.00;;;;;;6249275;22;20468;-70
2022/04/21 06:36:35;;;;;;;1.67;1.43;;;8.40;98.00;;;;;;6275953;22;20930;-70
2022/04/21 06:39:05;;;;;;;4.57;2.50;;;8.60;98.00;;;;;;6275871;22;20414;-70
2022/04/21 06:41:33;;;;;;;1.60;1.57;;;8.60;98.00;;;;;;6249363;22;20414;-69
2022/04/21 06:49:28;;;;;;;2.00;1.90;;;8.90;98.00;;;;;;6276175;22;20392;-69
2022/04/21 06:51:55;;;;;;;1.50;1.40;;;9.10;98.00;;;;;;6275706;22;20440;-70
2022/04/21 06:54:23;;;;;;;2.17;1.87;;;9.30;98.00;;;;;;6275582;22;20416;-70
2022/04/21 06:56:50;;;;;;;3.70;2.10;;;9.40;98.00;;;;;;6275311;22;20895;-70
2022/04/21 06:59:17;;;;;;;2.27;1.83;;;9.50;98.00;;;;;;6275955;22;20409;-70
2022/04/21 07:01:46;;;;;;;4.87;2.23;;;9.50;98.00;;;;;;6276035;22;20420;-69
2022/04/21 07:04:13;;;;;;;3.00;1.97;;;9.80;98.00;;;;;;6276156;22;20413;-69
2022/04/21 07:06:43;;;;;;;5.80;2.60;;;9.80;98.00;;;;;;6275800;22;20436;-71
2022/04/21 07:09:10;;;;;;;2.33;2.10;;;9.80;98.00;;;;;;6276461;22;20403;-70
2022/04/21 07:11:39;;;;;;;1.70;1.40;;;10.00;98.00;;;;;;6276149;22;20429;-71
2022/04/21 07:14:06;;;;;;;5.07;1.87;;;10.00;98.00;;;;;;6276436;22;20465;-69
2022/04/21 07:16:33;;;;;;;3.50;1.80;;;10.10;98.00;;;;;;6275897;22;20420;-70
2022/04/21 07:19:00;;;;;;;1.90;1.60;;;10.20;98.00;;;;;;6275653;22;20706;-70
2022/04/21 07:21:27;;;;;;;2.50;1.60;;;10.40;98.00;;;;;;6248701;22;20413;-70
2022/04/21 07:23:54;;;;;;;2.03;1.37;;;10.40;98.00;;;;;;6275522;22;20448;-69
2022/04/21 07:26:21;;;;;;;2.33;2.10;;;10.60;98.00;;;;;;6274600;22;20933;-72
2022/04/21 07:28:51;;;;;;;3.10;2.33;;;10.70;98.00;;;;;;6275032;22;20414;-70
2022/04/21 07:31:18;;;;;;;1.50;1.40;;;10.90;98.00;;;;;;6274443;22;20453;-70
2022/04/21 07:33:45;;;;;;;2.67;1.70;;;11.00;98.00;;;;;;6275687;22;20534;-70
2022/04/21 07:36:12;;;;;;;2.87;2.03;;;11.10;98.00;;;;;;6272952;22;20446;-69
2022/04/21 07:38:39;;;;;;;2.00;1.90;;;11.20;98.00;;;;;;6274381;22;20433;-69
2022/04/21 07:41:06;;;;;;;1.70;1.40;;;11.30;98.00;;;;;;6274744;22;20396;-68
2022/04/21 07:43:33;;;;;;;2.37;1.80;;;11.40;98.00;;;;;;6274580;22;20751;-69
2022/04/21 07:46:02;;;;;;;3.30;2.13;;;11.50;98.00;;;;;;6274732;22;20404;-69
2022/04/21 07:49:44;;;;;;;2.77;1.97;;;11.70;98.00;;;;;;6274964;22;20394;-71
2022/04/21 07:51:16;;;;;;;2.80;1.30;;;11.80;98.00;;;;;;6273020;22;20922;-72
2022/04/21 07:53:42;;;;;;;2.60;1.97;;;12.00;97.40;;;;;;6246278;22;20443;-72
2022/04/21 07:56:10;;;;;;;3.53;1.80;;;12.20;97.70;;;;;;6273957;22;20416;-72
2022/04/21 07:58:37;;;;;;;4.73;2.10;;;12.10;95.20;;;;;;6273310;22;20439;-73
2022/04/21 08:01:06;;;;;;;1.50;1.37;;;12.10;95.20;;;;;;6273823;22;20403;-71
2022/04/21 08:03:37;;;;;;;3.30;1.90;;;12.20;95.70;;;;;;6273832;22;20476;-73
2022/04/21 08:06:04;;;;;;;4.20;2.00;;;12.30;96.50;;;;;;6273788;22;20454;-72
2022/04/21 08:08:32;;;;;;;2.07;1.70;;;12.50;95.90;;;;;;6273839;22;20404;-73
2022/04/21 08:10:59;;;;;;;4.30;1.60;;;12.60;94.20;;;;;;6273969;22;20793;-74
2022/04/21 08:13:28;;;;;;;3.40;1.83;;;12.80;94.40;;;;;;6273595;22;20426;-74
2022/04/21 08:15:56;;;;;;;3.17;2.13;;;12.90;94.10;;;;;;6273768;22;20404;-70
2022/04/21 08:18:24;;;;;;;3.33;1.90;;;13.00;93.60;;;;;;6273704;22;20400;-73
2022/04/21 08:20:53;;;;;;;2.40;1.83;;;13.10;92.10;;;;;;6273059;22;20449;-72
2022/04/21 08:23:21;;;;;;;3.23;1.77;;;13.10;93.30;;;;;;6273124;22;20921;-72
2022/04/21 08:34:07;;;;;;;1.83;1.50;;;13.70;91.50;;;;;;6273073;22;20413;-69
2022/04/21 08:36:36;;;;;;;2.10;1.63;;;13.80;91.70;;;;;;6271865;22;20467;-69
2022/04/21 08:39:03;;;;;;;1.90;1.60;;;13.90;91.70;;;;;;6273022;22;20486;-69
2022/04/21 08:41:33;;;;;;;3.37;2.10;;;14.00;91.70;;;;;;6273377;22;20455;-71
2022/04/21 08:44:03;;;;;;;3.10;1.83;;;14.10;90.40;;;;;;6273073;22;20429;-68
2022/04/21 08:46:34;;;;;;;1.93;1.70;;;14.10;90.10;;;;;;6272909;22;20492;-70
2022/04/21 08:49:04;;;;;;;3.00;1.50;;;14.20;90.00;;;;;;6273235;22;20451;-70
2022/04/21 08:51:34;;;;;;;1.87;1.60;;;14.30;89.70;;;;;;6272557;22;20889;-69
2022/04/21 08:54:02;;;;;;;1.50;1.50;;;14.40;89.50;;;;;;6273230;22;20426;-71
2022/04/21 08:56:30;;;;;;;1.83;1.40;;;14.50;88.80;;;;;;6273470;22;20395;-69
2022/04/21 08:58:57;;;;;;;1.77;1.33;;;14.70;89.20;;;;;;6273373;22;20826;-69
2022/04/21 09:01:27;;;;;;;1.97;1.80;;;14.70;88.30;;;;;;6273106;22;20728;-67
2022/04/21 09:03:54;;;;;;;2.87;1.80;;;14.80;87.70;;;;;;6273071;22;20400;-67
2022/04/21 09:06:22;;;;;;;2.53;1.57;;;15.00;87.30;;;;;;6272627;22;20790;-68
2022/04/21 09:09:16;;;;;;;2.40;2.17;;;15.10;88.30;;;;;;6246616;22;20435;-67
2022/04/21 09:11:43;;;;;;;1.50;1.30;;;15.20;85.90;;;;;;6273049;22;20404;-70
2022/04/21 09:14:16;;;;;;;3.30;2.00;;;15.40;87.50;;;;;;6273139;22;20896;-69
2022/04/21 09:16:43;;;;;;;1.70;1.40;;;15.50;86.80;;;;;;6273213;22;20495;-70
2022/04/21 09:19:10;;;;;;;2.73;2.10;;;15.50;84.90;;;;;;6272732;22;20413;-69
2022/04/21 09:21:37;;;;;;;2.33;1.53;;;15.70;86.50;;;;;;6273057;22;20436;-69
2022/04/21 09:26:58;;;;;;;4.23;1.90;;;15.80;85.80;;;;;;5150917;27;20413;-67
2022/04/21 09:29:28;;;;;;;2.70;1.70;;;15.70;84.60;;;;;;5144701;27;20530;-68
2022/04/21 09:31:58;;;;;;;2.80;2.03;;;15.80;84.90;;;;;;5146707;27;20450;-68
2022/04/21 09:34:26;;;;;;;2.53;1.90;;;15.90;85.10;;;;;;5146891;27;20461;-67
2022/04/21 09:36:56;;;;;;;2.87;2.10;;;16.10;85.10;;;;;;5145751;27;20453;-69
2022/04/21 09:39:23;;;;;;;2.97;1.73;;;16.30;83.70;;;;;;5147258;27;20539;-72
2022/04/21 09:41:53;;;;;;;3.20;1.90;;;16.40;84.10;;;;;;5146821;27;20441;-68
2022/04/21 09:47:19;;;;;;;3.40;2.03;;;16.60;82.50;;;;;;5147389;27;20449;-68
2022/04/21 09:49:46;;;;;;;1.90;1.60;;;16.80;84.00;;;;;;5144773;27;20457;-68
2022/04/21 09:52:14;;;;;;;3.50;2.10;;;16.90;81.80;;;;;;5147058;27;20445;-68
2022/04/21 09:54:41;;;;;;;1.83;1.73;;;16.90;81.10;;;;;;5147123;27;20485;-69
2022/04/21 09:57:08;;;;;;;2.23;1.80;;;17.00;80.60;;;;;;5147217;27;20909;-68
2022/04/21 09:59:38;;;;;;;5.20;1.80;;;17.20;80.20;;;;;;5146460;27;20508;-68
2022/04/21 10:02:06;;;;;;;2.47;1.97;;;17.20;80.30;;;;;;5146777;27;20538;-68
2022/04/21 10:04:33;;;;;;;3.27;1.60;;;17.10;80.50;;;;;;5146988;27;20515;-69
2022/04/21 10:07:01;;;;;;;2.17;1.50;;;17.20;80.90;;;;;;5146524;27;20486;-68
2022/04/21 10:09:29;;;;;;;2.30;1.50;;;17.40;79.40;;;;;;5145297;27;20882;-68
2022/04/21 10:11:59;;;;;;;2.60;1.73;;;17.50;80.10;;;;;;5146414;27;20468;-68
2022/04/21 10:14:27;;;;;;;2.50;1.93;;;17.70;80.30;;;;;;5146626;27;20449;-70
2022/04/21 10:16:55;;;;;;;2.30;1.67;;;17.80;80.60;;;;;;5146048;27;20520;-69
2022/04/21 10:19:23;;;;;;;1.90;1.30;;;17.90;78.30;;;;;;5146710;27;20513;-68
2022/04/21 10:21:53;;;;;;;2.00;1.70;;;17.80;77.70;;;;;;5144956;27;20477;-68
2022/04/21 10:24:23;;;;;;;3.10;1.90;;;17.70;79.00;;;;;;5145274;27;20537;-68
2022/04/21 10:26:50;;;;;;;1.60;1.47;;;17.70;79.90;;;;;;5137787;27;20489;-69
2022/04/21 10:29:19;;;;;;;1.60;1.40;;;17.70;79.30;;;;;;5147688;27;20485;-68
2022/04/21 10:31:51;;;;;;;1.43;1.10;;;17.70;77.30;;;;;;5147397;27;20453;-69
2022/04/21 10:34:31;;;;;;;1.90;1.37;;;17.70;78.60;;;;;;5148435;27;20464;-69
2022/04/21 10:37:12;;;;;;;1.80;1.40;;;18.00;77.90;;;;;;5142727;27;20960;-70
2022/04/21 10:39:42;;;;;;;1.43;1.23;;;18.30;80.20;;;;;;5134889;27;20460;-69
2022/04/21 10:42:17;;;;;;;1.47;1.17;;;18.60;78.50;;;;;;5134709;27;20458;-68
2022/04/21 10:44:46;;;;;;;1.93;1.50;;;18.80;77.10;;;;;;5133589;27;20477;-69
2022/04/21 10:47:43;;;;;;;1.20;1.20;;;18.80;75.90;;;;;;5133344;27;20534;-69
2022/04/21 10:50:21;;;;;;;1.60;1.30;;;19.00;76.80;;;;;;5135017;27;21116;-68
2022/04/21 10:58:53;;;;;;;1.67;1.50;;;19.60;74.30;;;;;;5134631;27;20449;-68
2022/04/21 11:01:28;;;;;;;1.67;1.37;;;19.90;75.10;;;;;;5134331;27;20460;-69
2022/04/21 11:04:12;;;;;;;1.47;1.20;;;19.80;72.20;;;;;;5134309;27;20597;-68
2022/04/21 11:06:45;;;;;;;1.73;1.30;;;19.80;73.70;;;;;;5134007;27;20482;-69
2022/04/21 11:09:38;;;;;;;1.50;1.27;;;20.00;72.90;;;;;;5134220;27;20454;-68
2022/04/21 11:12:07;;;;;;;1.40;1.30;;;20.30;72.60;;;;;;5134182;27;20997;-69
2022/04/21 11:14:36;;;;;;;1.77;1.40;;;20.10;72.00;;;;;;5133023;27;20529;-69
2022/04/21 11:17:04;;;;;;;1.20;1.20;;;20.30;71.90;;;;;;5134054;27;20486;-68
2022/04/21 11:19:44;;;;;;;1.73;1.20;;;20.50;71.50;;;;;;5134104;27;20472;-68
2022/04/21 11:22:36;;;;;;;1.30;1.30;;;20.70;70.00;;;;;;5133803;27;20457;-68
2022/04/21 11:25:06;;;;;;;1.80;1.25;;;20.80;70.40;;;;;;5133775;27;20501;-68
2022/04/21 11:27:42;;;;;;;1.63;1.30;;;21.00;71.30;;;;;;5133906;27;20470;-69
2022/04/21 11:30:13;;;;;;;1.40;1.40;;;21.10;70.60;;;;;;5133829;27;20461;-69
2022/04/21 11:32:40;;;;;;;1.47;1.30;;;21.10;70.20;;;;;;5133839;27;20963;-69
2022/04/21 11:35:10;;;;;;;1.80;1.43;;;21.10;70.20;;;;;;5134002;27;20454;-69
2022/04/21 11:38:03;;;;;;;1.40;1.30;;;20.90;70.40;;;;;;5133959;27;20514;-69
2022/04/21 11:40:33;;;;;;;1.53;1.50;;;20.40;70.70;;;;;;5134020;27;20500;-68
2022/04/21 11:43:06;;;;;;;1.67;1.47;;;20.20;71.20;;;;;;5133627;27;20458;-69
2022/04/21 11:45:36;;;;;;;2.10;1.50;;;20.30;71.10;;;;;;5133702;27;20557;-70
2022/04/21 11:48:11;;;;;;;1.30;1.13;;;20.70;71.20;;;;;;5133182;27;20450;-69
2022/04/21 11:50:38;;;;;;;2.23;1.47;;;20.90;73.70;;;;;;5132352;27;20460;-69
2022/04/21 11:53:15;;;;;;;1.93;1.60;;;21.20;71.60;;;;;;5133281;27;20450;-69
2022/04/21 11:55:42;;;;;;;2.83;1.73;;;21.40;70.10;;;;;;5133248;27;20854;-69
2022/04/21 11:58:09;;;;;;;2.00;1.47;;;21.50;69.20;;;;;;5133242;27;20446;-71
2022/04/21 12:08:53;;;;;;;2.67;1.90;;;21.20;70.10;;;;;;5132162;27;20445;-69
2022/04/21 12:11:22;;;;;;;2.13;1.50;;;21.60;70.40;;;;;;5133156;27;20449;-69
2022/04/21 12:13:50;;;;;;;1.80;1.50;;;21.70;70.40;;;;;;5132982;27;20967;-68
2022/04/21 12:16:53;;;;;;;1.70;1.30;;;21.60;69.80;;;;;;5133390;27;20500;-69
2022/04/21 12:19:28;;;;;;;1.50;1.40;;;21.50;69.40;;;;;;5133401;27;20454;-70
2022/04/21 12:22:01;;;;;;;1.80;1.70;;;21.50;70.10;;;;;;5133471;27;20488;-69
2022/04/21 12:24:35;;;;;;;1.83;1.60;;;21.90;68.90;;;;;;5133517;27;20453;-70
2022/04/21 12:27:05;;;;;;;3.30;1.70;;;21.40;70.00;;;;;;5133009;27;21046;-70
2022/04/21 12:29:45;;;;;;;2.03;1.67;;;21.90;69.60;;;;;;5133444;27;20495;-69
2022/04/21 12:32:12;;;;;;;1.97;1.70;;;22.30;68.20;;;;;;5133402;27;20841;-69
2022/04/21 12:34:41;;;;;;;1.97;1.40;;;22.80;68.40;;;;;;5133352;27;20506;-70
2022/04/21 12:37:10;;;;;;;1.70;1.53;;;22.70;67.60;;;;;;5133009;27;20446;-69
2022/04/21 12:39:38;;;;;;;3.07;2.03;;;22.10;67.40;;;;;;5133456;27;20487;-71
2022/04/21 12:42:06;;;;;;;2.33;1.77;;;22.20;66.80;;;;;;5132931;27;20753;-68
2022/04/21 12:44:34;;;;;;;2.13;1.70;;;22.50;66.70;;;;;;5133089;27;20495;-69
2022/04/21 12:47:04;;;;;;;1.80;1.50;;;23.10;68.20;;;;;;5133004;27;20478;-69
2022/04/21 12:49:51;;;;;;;3.53;1.87;;;23.60;67.50;;;;;;5133003;27;20473;-67
2022/04/21 12:52:32;;;;;;;1.77;1.50;;;24.10;66.30;;;;;;5133029;27;20442;-68
2022/04/21 12:55:01;;;;;;;1.63;1.50;;;24.40;64.70;;;;;;5132745;27;20511;-69
2022/04/21 12:57:28;;;;;;;1.57;1.30;;;24.30;63.90;;;;;;5132892;27;20458;-68
2022/04/21 12:59:55;;;;;;;2.90;1.80;;;24.30;64.20;;;;;;5132711;27;20820;-68
2022/04/21 13:02:22;;;;;;;2.13;1.70;;;23.80;63.10;;;;;;5132107;27;20809;-68
2022/04/21 13:04:49;;;;;;;2.53;1.70;;;23.00;64.40;;;;;;5132255;27;20454;-68
2022/04/21 13:07:17;;;;;;;1.80;1.50;;;22.40;66.50;;;;;;5132140;27;20589;-68
2022/04/21 13:09:46;;;;;;;1.80;1.53;;;21.70;66.80;;;;;;5132732;27;20495;-68
2022/04/21 13:12:14;;;;;;;2.27;1.40;;;21.20;67.60;;;;;;5132680;27;20507;-70
2022/04/21 13:14:42;;;;;;;1.93;1.50;;;21.20;69.50;;;;;;5133080;27;20449;-68
2022/04/21 13:17:09;;;;;;;1.57;1.30;;;21.70;68.40;;;;;;5132625;27;20495;-68
2022/04/21 13:19:37;;;;;;;1.70;1.40;;;22.20;64.60;;;;;;5133004;27;21044;-68
2022/04/21 13:22:04;;;;;;;2.03;1.50;;;22.40;64.50;;;;;;5131616;27;20473;-68
2022/04/21 13:24:33;;;;;;;1.87;1.40;;;22.50;66.00;;;;;;5133035;28;20458;-68
2022/04/21 13:27:02;;;;;;;1.73;1.43;;;22.50;64.50;;;;;;5132859;28;20505;-68
2022/04/21 13:29:33;;;;;;;1.50;1.33;;;22.90;65.00;;;;;;5132607;28;20455;-68
2022/04/21 13:34:46;;;;;;;3.00;1.50;;;22.80;63.90;;;;;;5132545;28;20942;-68
2022/04/21 13:37:13;;;;;;;1.97;1.33;;;22.60;64.80;;;;;;5132390;28;20457;-68
2022/04/21 13:39:41;;;;;;;1.63;1.40;;;22.70;64.90;;;;;;5132480;28;20537;-68
2022/04/21 13:42:10;;;;;;;2.03;1.50;;;22.80;65.10;;;;;;5131313;28;20497;-68
2022/04/21 13:44:38;;;;;;;2.23;1.77;;;22.70;65.50;;;;;;5132529;28;20509;-68
2022/04/21 13:47:05;;;;;;;3.73;1.70;;;22.40;64.80;;;;;;5132300;28;20524;-68
2022/04/21 13:49:33;;;;;;;1.63;1.50;;;21.90;64.50;;;;;;5132549;27;20526;-68
2022/04/21 13:52:00;;;;;;;2.83;1.47;;;21.50;65.40;;;;;;5132481;28;20454;-68
2022/04/21 13:54:27;;;;;;;2.13;1.50;;;21.30;66.70;;;;;;5131231;28;20472;-68
2022/04/21 13:56:54;;;;;;;2.03;1.43;;;21.20;67.30;;;;;;5132303;28;20818;-68
2022/04/21 13:59:21;;;;;;;1.50;1.33;;;21.10;67.70;;;;;;5131344;28;20509;-68
2022/04/21 14:01:50;;;;;;;2.77;1.93;;;21.00;68.00;;;;;;5132194;28;20454;-68